createdAt,value
2017-05-17T00:00:35.290Z,0
2017-05-17T00:01:15.806Z,0
2017-05-17T00:01:57.310Z,0
2017-05-17T00:02:37.845Z,0
2017-05-17T00:03:18.294Z,0
2017-05-17T00:05:46.283Z,0
2017-05-17T00:06:26.796Z,0
2017-05-17T00:07:07.288Z,0
2017-05-17T00:07:47.777Z,0
2017-05-17T00:08:28.278Z,0
2017-05-17T00:09:08.765Z,0
2017-05-17T00:09:49.254Z,0
2017-05-17T00:10:29.798Z,0
2017-05-17T00:11:10.293Z,0
2017-05-17T00:11:51.755Z,0
2017-05-17T00:12:32.257Z,0
2017-05-17T00:13:12.736Z,0
2017-05-17T00:13:53.252Z,0
2017-05-17T00:14:33.703Z,0
2017-05-17T00:15:14.157Z,0
2017-05-17T00:15:54.716Z,0
2017-05-17T00:16:35.154Z,0
2017-05-17T00:17:15.650Z,0
2017-05-17T00:17:56.148Z,0
2017-05-17T00:18:36.646Z,0
2017-05-17T00:19:17.126Z,0
2017-05-17T00:19:57.570Z,0
2017-05-17T00:20:38.085Z,0
2017-05-17T00:21:18.579Z,0
2017-05-17T00:22:00.080Z,0
2017-05-17T00:22:40.589Z,0
2017-05-17T00:23:21.076Z,0
2017-05-17T00:24:01.555Z,0
2017-05-17T00:24:42.101Z,0
2017-05-17T00:25:22.607Z,0
2017-05-17T00:26:03.091Z,0
2017-05-17T00:26:44.337Z,0
2017-05-17T00:27:25.473Z,0
2017-05-17T00:28:05.962Z,0
2017-05-17T00:28:46.512Z,0
2017-05-17T00:29:27.012Z,0
2017-05-17T00:30:07.493Z,0
2017-05-17T00:30:47.995Z,0
2017-05-17T00:31:28.514Z,0
2017-05-17T00:32:09.760Z,0
2017-05-17T00:32:50.247Z,0
2017-05-17T00:33:31.661Z,0
2017-05-17T00:34:12.165Z,0
2017-05-17T00:36:40.090Z,0
2017-05-17T00:37:20.569Z,0
2017-05-17T00:38:01.664Z,0
2017-05-17T00:38:42.165Z,0
2017-05-17T00:39:23.300Z,0
2017-05-17T00:40:03.790Z,0
2017-05-17T00:40:44.275Z,0
2017-05-17T00:41:24.776Z,0
2017-05-17T00:42:05.271Z,0
2017-05-17T00:42:45.758Z,0
2017-05-17T00:43:26.232Z,0
2017-05-17T00:44:06.735Z,0
2017-05-17T00:44:47.201Z,0
2017-05-17T00:45:27.670Z,0
2017-05-17T00:48:00.688Z,0
2017-05-17T00:48:41.751Z,0
2017-05-17T00:49:22.247Z,0
2017-05-17T00:50:02.735Z,0
2017-05-17T00:50:43.241Z,0
2017-05-17T00:51:23.719Z,0
2017-05-17T00:52:05.077Z,0
2017-05-17T00:52:46.254Z,0
2017-05-17T00:53:27.572Z,0
2017-05-17T00:54:08.070Z,0
2017-05-17T00:54:49.370Z,0
2017-05-17T00:55:29.890Z,0
2017-05-17T00:56:10.385Z,0
2017-05-17T00:56:50.882Z,0
2017-05-17T00:57:31.367Z,0
2017-05-17T00:58:13.668Z,0
2017-05-17T00:58:54.169Z,0
2017-05-17T00:59:34.651Z,0
2017-05-17T01:00:15.121Z,0
2017-05-17T01:00:55.592Z,0
2017-05-17T01:01:36.144Z,0
2017-05-17T01:02:16.563Z,0
2017-05-17T01:02:57.045Z,0
2017-05-17T01:03:37.546Z,0
2017-05-17T01:04:18.043Z,0
2017-05-17T01:04:59.266Z,0
2017-05-17T01:05:39.792Z,0
2017-05-17T01:06:21.072Z,0
2017-05-17T01:07:01.577Z,0
2017-05-17T01:07:42.120Z,0
2017-05-17T01:08:22.548Z,0
2017-05-17T01:09:03.671Z,0
2017-05-17T01:09:44.166Z,0
2017-05-17T01:10:25.513Z,0
2017-05-17T01:11:05.999Z,0
2017-05-17T01:11:46.496Z,0
2017-05-17T01:12:26.976Z,0
2017-05-17T01:13:07.475Z,0
2017-05-17T01:13:48.586Z,0
2017-05-17T01:14:29.966Z,0
2017-05-17T01:15:10.491Z,0
2017-05-17T01:15:51.119Z,0
2017-05-17T01:16:32.528Z,0
2017-05-17T01:17:12.985Z,0
2017-05-17T01:17:53.485Z,0
2017-05-17T01:18:33.989Z,0
2017-05-17T01:19:14.474Z,0
2017-05-17T01:19:54.959Z,0
2017-05-17T01:20:35.575Z,0
2017-05-17T01:21:16.057Z,0
2017-05-17T01:23:28.864Z,0
2017-05-17T01:24:09.353Z,0
2017-05-17T01:24:49.843Z,0
2017-05-17T01:25:30.466Z,0
2017-05-17T01:26:10.945Z,0
2017-05-17T01:26:51.429Z,0
2017-05-17T01:27:31.921Z,0
2017-05-17T01:28:12.429Z,0
2017-05-17T01:28:52.916Z,0
2017-05-17T01:29:33.407Z,0
2017-05-17T01:30:14.839Z,0
2017-05-17T01:30:55.267Z,0
2017-05-17T01:31:36.542Z,0
2017-05-17T01:32:17.029Z,0
2017-05-17T01:32:57.518Z,0
2017-05-17T01:33:38.025Z,0
2017-05-17T01:34:18.496Z,0
2017-05-17T01:36:16.141Z,0
2017-05-17T01:36:56.661Z,0
2017-05-17T01:37:37.149Z,0
2017-05-17T01:38:17.662Z,0
2017-05-17T01:38:58.146Z,0
2017-05-17T01:39:38.657Z,0
2017-05-17T01:40:20.807Z,0
2017-05-17T01:41:01.254Z,0
2017-05-17T01:41:41.783Z,0
2017-05-17T01:42:22.259Z,0
2017-05-17T01:43:03.340Z,0
2017-05-17T01:43:44.695Z,0
2017-05-17T01:44:25.200Z,0
2017-05-17T01:45:05.687Z,0
2017-05-17T01:45:46.181Z,0
2017-05-17T01:46:26.676Z,0
2017-05-17T01:47:07.148Z,0
2017-05-17T01:47:47.645Z,0
2017-05-17T01:48:28.140Z,0
2017-05-17T01:49:08.629Z,0
2017-05-17T01:49:49.129Z,0
2017-05-17T01:50:29.622Z,0
2017-05-17T01:51:10.108Z,0
2017-05-17T01:51:50.600Z,0
2017-05-17T01:52:31.831Z,0
2017-05-17T01:53:12.339Z,0
2017-05-17T01:53:52.821Z,0
2017-05-17T01:54:33.342Z,0
2017-05-17T01:55:13.819Z,0
2017-05-17T01:55:54.342Z,0
2017-05-17T01:56:34.836Z,0
2017-05-17T01:57:15.308Z,0
2017-05-17T01:57:55.786Z,0
2017-05-17T01:58:36.298Z,0
2017-05-17T01:59:16.770Z,0
2017-05-17T01:59:58.047Z,0
2017-05-17T02:00:39.118Z,0
2017-05-17T02:01:19.613Z,0
2017-05-17T02:02:00.110Z,0
2017-05-17T02:02:40.595Z,0
2017-05-17T02:03:21.076Z,0
2017-05-17T02:04:01.553Z,0
2017-05-17T02:04:42.053Z,0
2017-05-17T02:05:22.577Z,0
2017-05-17T02:06:03.086Z,0
2017-05-17T02:06:43.586Z,0
2017-05-17T02:07:24.080Z,0
2017-05-17T02:08:04.572Z,0
2017-05-17T02:08:45.841Z,0
2017-05-17T02:09:26.339Z,0
2017-05-17T02:10:06.833Z,0
2017-05-17T02:10:47.329Z,0
2017-05-17T02:11:27.817Z,0
2017-05-17T02:12:08.294Z,0
2017-05-17T02:12:48.729Z,0
2017-05-17T02:13:29.197Z,0
2017-05-17T02:14:09.685Z,0
2017-05-17T02:14:50.179Z,0
2017-05-17T02:15:30.687Z,0
2017-05-17T02:16:11.209Z,0
2017-05-17T02:16:51.692Z,0
2017-05-17T02:17:32.172Z,0
2017-05-17T02:18:12.670Z,0
2017-05-17T02:18:53.154Z,0
2017-05-17T02:19:33.667Z,0
2017-05-17T02:20:14.232Z,0
2017-05-17T02:20:54.740Z,0
2017-05-17T02:21:35.191Z,0
2017-05-17T02:22:16.543Z,0
2017-05-17T02:22:57.041Z,0
2017-05-17T02:23:37.534Z,0
2017-05-17T02:24:18.044Z,0
2017-05-17T02:24:58.550Z,0
2017-05-17T02:25:39.705Z,0
2017-05-17T02:26:20.221Z,0
2017-05-17T02:27:00.711Z,0
2017-05-17T02:27:41.746Z,0
2017-05-17T02:28:22.207Z,0
2017-05-17T02:29:02.704Z,0
2017-05-17T02:29:43.191Z,0
2017-05-17T02:30:23.736Z,0
2017-05-17T02:31:04.263Z,0
2017-05-17T02:31:44.742Z,0
2017-05-17T02:32:25.229Z,0
2017-05-17T02:33:05.733Z,0
2017-05-17T02:33:46.218Z,0
2017-05-17T02:34:26.707Z,0
2017-05-17T02:36:39.431Z,0
2017-05-17T02:37:20.827Z,0
2017-05-17T02:38:01.323Z,0
2017-05-17T02:38:41.820Z,0
2017-05-17T02:39:22.295Z,0
2017-05-17T02:40:02.810Z,0
2017-05-17T02:40:43.285Z,0
2017-05-17T02:41:23.778Z,0
2017-05-17T02:42:04.993Z,0
2017-05-17T02:42:45.501Z,0
2017-05-17T02:43:26.507Z,0
2017-05-17T02:44:07.510Z,0
2017-05-17T02:44:47.995Z,0
2017-05-17T02:45:28.486Z,0
2017-05-17T02:46:08.993Z,0
2017-05-17T02:46:49.474Z,0
2017-05-17T02:47:29.928Z,0
2017-05-17T02:49:27.576Z,0
2017-05-17T02:50:08.072Z,0
2017-05-17T02:50:49.270Z,0
2017-05-17T02:51:30.564Z,0
2017-05-17T02:52:11.084Z,0
2017-05-17T02:52:51.577Z,0
2017-05-17T02:53:32.082Z,0
2017-05-17T02:54:12.562Z,0
2017-05-17T02:54:53.057Z,0
2017-05-17T02:55:35.061Z,0
2017-05-17T02:56:16.468Z,0
2017-05-17T02:56:56.957Z,0
2017-05-17T02:57:37.506Z,0
2017-05-17T02:58:17.949Z,0
2017-05-17T02:58:58.433Z,0
2017-05-17T02:59:38.915Z,0
2017-05-17T03:00:19.510Z,0
2017-05-17T03:00:59.996Z,0
2017-05-17T03:01:40.489Z,0
2017-05-17T03:02:20.994Z,0
2017-05-17T03:03:01.507Z,0
2017-05-17T03:03:42.023Z,0
2017-05-17T03:04:22.519Z,0
2017-05-17T03:05:03.016Z,0
2017-05-17T03:05:43.517Z,0
2017-05-17T03:06:24.012Z,0
2017-05-17T03:07:04.516Z,0
2017-05-17T03:07:45.009Z,4
2017-05-17T03:08:25.511Z,4
2017-05-17T03:09:06.000Z,4
2017-05-17T03:09:46.484Z,4
2017-05-17T03:10:27.001Z,4
2017-05-17T03:11:07.509Z,0
2017-05-17T03:11:48.965Z,4
2017-05-17T03:12:29.441Z,4
2017-05-17T03:13:09.936Z,4
2017-05-17T03:13:51.279Z,4
2017-05-17T03:14:31.772Z,8
2017-05-17T03:15:12.263Z,8
2017-05-17T03:15:52.783Z,4
2017-05-17T03:16:33.247Z,8
2017-05-17T03:19:06.285Z,12
2017-05-17T03:19:46.764Z,12
2017-05-17T03:20:27.286Z,12
2017-05-17T03:21:07.782Z,12
2017-05-17T03:21:48.267Z,12
2017-05-17T03:22:28.746Z,20
2017-05-17T03:23:09.237Z,20
2017-05-17T03:23:50.575Z,20
2017-05-17T03:24:32.567Z,24
2017-05-17T03:25:13.046Z,24
2017-05-17T03:25:53.555Z,28
2017-05-17T03:26:34.067Z,32
2017-05-17T03:27:14.528Z,32
2017-05-17T03:27:54.968Z,36
2017-05-17T03:28:35.459Z,40
2017-05-17T03:29:15.946Z,44
2017-05-17T03:29:57.351Z,48
2017-05-17T03:30:37.899Z,52
2017-05-17T03:31:18.380Z,60
2017-05-17T03:31:58.867Z,64
2017-05-17T03:32:39.363Z,68
2017-05-17T03:33:19.859Z,76
2017-05-17T03:34:00.852Z,80
2017-05-17T03:34:41.352Z,88
2017-05-17T03:35:21.842Z,92
2017-05-17T03:36:02.341Z,100
2017-05-17T03:36:42.831Z,104
2017-05-17T03:37:23.325Z,116
2017-05-17T03:38:03.808Z,120
2017-05-17T03:38:44.306Z,128
2017-05-17T03:39:24.829Z,140
2017-05-17T03:40:05.326Z,148
2017-05-17T03:40:45.804Z,156
2017-05-17T03:41:26.300Z,168
2017-05-17T03:42:06.795Z,176
2017-05-17T03:42:47.286Z,188
2017-05-17T03:43:27.766Z,196
2017-05-17T03:44:08.261Z,208
2017-05-17T03:44:48.744Z,220
2017-05-17T03:45:29.223Z,232
2017-05-17T03:46:09.697Z,244
2017-05-17T03:46:50.177Z,256
2017-05-17T03:47:30.652Z,268
2017-05-17T03:48:11.132Z,280
2017-05-17T03:50:28.922Z,324
2017-05-17T03:51:09.929Z,340
2017-05-17T03:51:50.444Z,356
2017-05-17T03:52:30.977Z,372
2017-05-17T03:53:11.479Z,388
2017-05-17T03:53:51.975Z,404
2017-05-17T03:54:33.245Z,420
2017-05-17T03:55:13.750Z,436
2017-05-17T03:55:54.266Z,452
2017-05-17T03:56:34.768Z,464
2017-05-17T03:57:15.253Z,484
2017-05-17T03:57:55.728Z,496
2017-05-17T03:58:36.237Z,516
2017-05-17T03:59:17.244Z,540
2017-05-17T03:59:57.735Z,560
2017-05-17T04:00:38.317Z,576
2017-05-17T04:01:18.739Z,592
2017-05-17T04:01:59.198Z,612
2017-05-17T04:02:39.642Z,632
2017-05-17T04:03:20.082Z,648
2017-05-17T04:04:00.556Z,668
2017-05-17T04:04:41.649Z,688
2017-05-17T04:05:22.659Z,712
2017-05-17T04:06:03.127Z,732
2017-05-17T04:06:43.578Z,752
2017-05-17T04:07:24.037Z,772
2017-05-17T04:08:04.464Z,792
2017-05-17T04:10:32.434Z,856
2017-05-17T04:11:12.910Z,876
2017-05-17T04:11:53.331Z,888
2017-05-17T04:12:33.779Z,912
2017-05-17T04:13:14.236Z,928
2017-05-17T04:15:47.260Z,992
2017-05-17T04:16:27.729Z,1008
2017-05-17T04:17:08.207Z,1024
2017-05-17T04:17:48.710Z,1044
2017-05-17T04:18:29.194Z,1060
2017-05-17T04:19:09.688Z,1076
2017-05-17T04:19:50.124Z,1092
2017-05-17T04:20:30.634Z,1112
2017-05-17T04:21:11.105Z,1128
2017-05-17T04:21:51.594Z,1148
2017-05-17T04:22:32.067Z,1164
2017-05-17T04:23:12.538Z,1184
2017-05-17T04:23:53.038Z,1200
2017-05-17T04:24:33.515Z,1216
2017-05-17T04:25:14.004Z,1232
2017-05-17T04:25:54.477Z,1248
2017-05-17T04:26:34.966Z,1264
2017-05-17T04:27:15.455Z,1280
2017-05-17T04:27:56.461Z,1292
2017-05-17T04:28:37.008Z,1312
2017-05-17T04:29:17.502Z,1324
2017-05-17T04:29:57.971Z,1340
2017-05-17T04:30:38.500Z,1356
2017-05-17T04:31:19.977Z,1372
2017-05-17T04:32:00.466Z,1392
2017-05-17T04:32:40.968Z,1408
2017-05-17T04:33:21.421Z,1428
2017-05-17T04:34:01.882Z,1448
2017-05-17T04:34:42.325Z,1468
2017-05-17T04:35:22.844Z,1488
2017-05-17T04:36:03.360Z,1508
2017-05-17T04:36:43.853Z,1528
2017-05-17T04:37:24.329Z,1544
2017-05-17T04:38:04.862Z,1560
2017-05-17T04:38:45.957Z,1580
2017-05-17T04:39:26.452Z,1592
2017-05-17T04:40:06.943Z,1608
2017-05-17T04:42:34.881Z,1788
2017-05-17T04:43:15.373Z,2112
2017-05-17T04:43:56.466Z,2536
2017-05-17T04:46:14.975Z,3420
2017-05-17T04:46:55.994Z,3472
2017-05-17T04:47:36.475Z,3508
2017-05-17T04:48:16.965Z,3556
2017-05-17T04:48:57.494Z,3604
2017-05-17T04:49:37.974Z,3664
2017-05-17T04:50:18.538Z,3712
2017-05-17T04:50:58.990Z,3764
2017-05-17T04:51:39.492Z,3816
2017-05-17T04:52:19.980Z,3872
2017-05-17T04:53:00.471Z,3936
2017-05-17T04:53:40.955Z,3984
2017-05-17T04:54:21.458Z,4036
2017-05-17T04:55:02.574Z,4084
2017-05-17T04:55:43.060Z,4136
2017-05-17T04:56:23.561Z,4188
2017-05-17T04:57:04.044Z,4244
2017-05-17T04:59:16.826Z,4412
2017-05-17T04:59:57.328Z,4464
2017-05-17T05:00:37.846Z,4548
2017-05-17T05:01:18.339Z,4604
2017-05-17T05:01:58.878Z,4656
2017-05-17T05:02:39.327Z,4724
2017-05-17T05:03:19.821Z,4784
2017-05-17T05:04:00.311Z,4852
2017-05-17T05:04:40.808Z,4904
2017-05-17T05:05:21.432Z,4936
2017-05-17T05:06:01.888Z,4992
2017-05-17T05:06:42.393Z,5040
2017-05-17T05:07:22.871Z,5084
2017-05-17T05:08:03.366Z,5140
2017-05-17T05:08:43.826Z,2508
2017-05-17T05:09:24.329Z,5120
2017-05-17T05:10:04.838Z,4560
2017-05-17T05:10:45.309Z,4152
2017-05-17T05:11:25.744Z,4904
2017-05-17T05:12:06.224Z,4868
2017-05-17T05:12:46.707Z,5564
2017-05-17T05:13:27.226Z,5616
2017-05-17T05:15:55.184Z,5864
2017-05-17T05:16:35.653Z,5940
2017-05-17T05:17:16.182Z,6004
2017-05-17T05:17:56.681Z,6084
2017-05-17T05:18:37.167Z,6160
2017-05-17T05:19:17.649Z,6248
2017-05-17T05:19:58.141Z,6320
2017-05-17T05:20:38.646Z,6396
2017-05-17T05:21:19.150Z,6472
2017-05-17T05:21:59.641Z,6556
2017-05-17T05:22:40.133Z,6632
2017-05-17T05:23:20.602Z,6720
2017-05-17T05:24:01.118Z,6800
2017-05-17T05:24:41.611Z,6896
2017-05-17T05:25:22.151Z,6984
2017-05-17T05:26:02.635Z,7080
2017-05-17T05:26:43.105Z,7176
2017-05-17T05:27:23.590Z,7264
2017-05-17T05:28:04.096Z,7352
2017-05-17T05:28:44.595Z,7428
2017-05-17T05:29:25.087Z,7520
2017-05-17T05:30:05.573Z,7616
2017-05-17T05:30:46.076Z,7724
2017-05-17T05:31:26.572Z,7804
2017-05-17T05:32:07.070Z,7896
2017-05-17T05:32:47.550Z,7996
2017-05-17T05:33:28.049Z,8068
2017-05-17T05:34:08.539Z,8184
2017-05-17T05:34:49.044Z,8272
2017-05-17T05:35:29.563Z,8376
2017-05-17T05:36:10.087Z,8464
2017-05-17T05:36:51.387Z,8584
2017-05-17T05:37:31.861Z,8672
2017-05-17T05:38:12.365Z,8768
2017-05-17T05:38:52.840Z,8876
2017-05-17T05:39:33.996Z,9020
2017-05-17T05:40:14.479Z,9124
2017-05-17T05:40:54.989Z,9220
2017-05-17T05:41:35.495Z,9340
2017-05-17T05:42:15.995Z,9460
2017-05-17T05:42:56.548Z,9560
2017-05-17T05:43:36.985Z,9664
2017-05-17T05:44:17.481Z,9768
2017-05-17T05:44:57.988Z,9892
2017-05-17T05:45:38.484Z,10012
2017-05-17T05:46:19.757Z,10124
2017-05-17T05:47:00.268Z,10256
2017-05-17T05:47:40.811Z,10400
2017-05-17T05:48:21.302Z,10484
2017-05-17T05:49:01.820Z,10576
2017-05-17T05:49:42.378Z,10732
2017-05-17T05:50:22.827Z,10944
2017-05-17T05:51:03.328Z,11080
2017-05-17T05:51:43.821Z,11236
2017-05-17T05:52:24.315Z,11364
2017-05-17T05:53:04.801Z,11532
2017-05-17T05:53:45.288Z,11688
2017-05-17T05:54:25.752Z,11860
2017-05-17T05:55:06.229Z,12064
2017-05-17T05:55:46.723Z,12292
2017-05-17T05:56:27.217Z,12496
2017-05-17T05:57:07.715Z,12644
2017-05-17T05:57:49.684Z,12832
2017-05-17T05:58:30.178Z,13016
2017-05-17T05:59:11.209Z,13216
2017-05-17T05:59:51.710Z,13440
2017-05-17T06:02:04.488Z,14232
2017-05-17T06:02:45.043Z,14476
2017-05-17T06:03:25.536Z,14764
2017-05-17T06:04:06.036Z,15060
2017-05-17T06:04:46.534Z,15360
2017-05-17T06:05:27.051Z,15684
2017-05-17T06:06:07.533Z,16160
2017-05-17T06:06:48.024Z,16480
2017-05-17T06:07:28.542Z,16864
2017-05-17T06:08:09.009Z,17184
2017-05-17T06:08:49.516Z,17664
2017-05-17T06:09:29.981Z,18336
2017-05-17T06:10:10.475Z,18944
2017-05-17T06:10:50.978Z,19520
2017-05-17T06:11:31.431Z,19840
2017-05-17T06:13:49.294Z,21440
2017-05-17T06:14:29.804Z,21920
2017-05-17T06:15:10.307Z,22432
2017-05-17T06:15:50.807Z,23040
2017-05-17T06:16:31.316Z,23776
2017-05-17T06:17:12.642Z,24416
2017-05-17T06:19:40.633Z,26496
2017-05-17T06:20:21.159Z,27296
2017-05-17T06:21:01.637Z,27936
2017-05-17T06:21:42.191Z,28480
2017-05-17T06:22:22.651Z,28832
2017-05-17T06:23:03.161Z,29536
2017-05-17T06:23:43.693Z,30080
2017-05-17T06:24:24.176Z,30528
2017-05-17T06:25:04.689Z,31072
2017-05-17T06:25:45.201Z,31712
2017-05-17T06:26:25.714Z,32352
2017-05-17T06:27:06.207Z,33280
2017-05-17T06:27:47.602Z,34016
2017-05-17T06:28:28.144Z,34432
2017-05-17T06:29:08.711Z,34496
2017-05-17T06:29:49.180Z,34656
2017-05-17T06:30:29.706Z,34848
2017-05-17T06:31:10.245Z,35104
2017-05-17T06:31:50.740Z,35264
2017-05-17T06:32:31.258Z,35296
2017-05-17T06:33:11.735Z,35360
2017-05-17T06:33:52.220Z,35264
2017-05-17T06:34:32.717Z,34944
2017-05-17T06:35:13.253Z,34464
2017-05-17T06:35:53.706Z,33952
2017-05-17T06:36:34.249Z,33440
2017-05-17T06:37:15.610Z,33152
2017-05-17T06:37:56.104Z,32896
2017-05-17T06:38:36.651Z,32448
2017-05-17T06:39:17.171Z,32000
2017-05-17T06:39:57.680Z,31424
2017-05-17T06:40:38.178Z,31040
2017-05-17T06:41:18.669Z,30656
2017-05-17T06:41:59.156Z,30048
2017-05-17T06:42:39.675Z,29216
2017-05-17T06:43:20.183Z,28576
2017-05-17T06:44:00.690Z,27680
2017-05-17T06:44:41.290Z,27008
2017-05-17T06:45:21.747Z,26496
2017-05-17T06:46:02.231Z,25984
2017-05-17T06:46:42.763Z,25312
2017-05-17T06:47:23.250Z,24672
2017-05-17T06:48:03.766Z,24192
2017-05-17T06:48:44.247Z,23616
2017-05-17T06:49:24.756Z,23136
2017-05-17T06:50:05.236Z,22816
2017-05-17T06:50:45.722Z,21760
2017-05-17T06:51:26.243Z,22848
2017-05-17T06:52:06.710Z,33600
2017-05-17T06:52:47.216Z,57280
2017-05-17T06:53:27.682Z,70848
2017-05-17T06:54:08.217Z,72320
2017-05-17T06:54:49.615Z,56000
2017-05-17T06:55:30.140Z,49216
2017-05-17T06:56:11.189Z,47872
2017-05-17T06:56:53.428Z,47008
2017-05-17T06:57:33.944Z,47264
2017-05-17T06:58:14.438Z,51264
2017-05-17T06:58:55.835Z,57216
2017-05-17T06:59:36.322Z,60000
2017-05-17T07:00:16.835Z,59328
2017-05-17T07:00:57.302Z,56512
2017-05-17T07:01:38.621Z,53344
2017-05-17T07:02:19.129Z,49952
2017-05-17T07:02:59.607Z,49280
2017-05-17T07:03:40.106Z,49472
2017-05-17T07:04:20.668Z,53056
2017-05-17T07:05:01.743Z,56288
2017-05-17T07:05:42.370Z,57760
2017-05-17T07:08:10.639Z,49344
2017-05-17T07:08:51.123Z,49184
2017-05-17T07:09:31.635Z,50272
2017-05-17T07:10:12.768Z,51392
2017-05-17T07:10:53.245Z,54016
2017-05-17T07:11:33.731Z,55264
2017-05-17T07:12:14.238Z,56512
2017-05-17T07:12:54.708Z,57536
2017-05-17T07:13:35.231Z,56224
2017-05-17T07:14:15.822Z,49536
2017-05-17T07:16:33.754Z,14832
2017-05-17T07:17:14.270Z,14316
2017-05-17T07:17:54.806Z,14116
2017-05-17T07:18:35.306Z,14020
2017-05-17T07:19:15.829Z,14044
2017-05-17T07:19:56.338Z,14132
2017-05-17T07:20:36.831Z,14292
2017-05-17T07:21:17.352Z,14516
2017-05-17T07:21:58.328Z,14768
2017-05-17T07:22:38.836Z,14968
2017-05-17T07:23:19.339Z,15104
2017-05-17T07:23:59.834Z,15112
2017-05-17T07:24:40.393Z,15048
2017-05-17T07:25:20.873Z,15044
2017-05-17T07:26:02.055Z,15236
2017-05-17T07:26:42.554Z,15464
2017-05-17T07:27:23.068Z,15636
2017-05-17T07:28:03.557Z,15896
2017-05-17T07:28:44.108Z,16272
2017-05-17T07:29:24.619Z,16488
2017-05-17T07:30:05.128Z,16608
2017-05-17T07:30:45.661Z,16844
2017-05-17T07:31:26.258Z,17172
2017-05-17T07:32:06.773Z,17408
2017-05-17T07:32:47.322Z,17792
2017-05-17T07:33:27.796Z,17952
2017-05-17T07:34:08.317Z,18272
2017-05-17T07:34:48.818Z,18560
2017-05-17T07:35:29.337Z,18912
2017-05-17T07:36:09.816Z,19328
2017-05-17T07:36:50.829Z,19936
2017-05-17T07:37:31.311Z,20704
2017-05-17T07:38:11.810Z,21632
2017-05-17T07:38:52.299Z,23360
2017-05-17T07:39:32.833Z,28032
2017-05-17T07:40:13.335Z,40576
2017-05-17T07:40:53.870Z,58432
2017-05-17T07:41:34.405Z,67040
2017-05-17T07:42:14.845Z,58400
2017-05-17T07:44:12.579Z,75776
2017-05-17T07:44:53.716Z,84480
2017-05-17T07:45:34.208Z,79488
2017-05-17T07:46:15.308Z,67552
2017-05-17T07:46:55.798Z,55616
2017-05-17T07:47:36.311Z,53472
2017-05-17T07:48:16.821Z,56448
2017-05-17T07:48:57.363Z,57376
2017-05-17T07:49:37.847Z,56576
2017-05-17T07:50:18.416Z,54016
2017-05-17T07:50:58.888Z,54048
2017-05-17T07:51:39.358Z,60448
2017-05-17T07:52:20.494Z,65056
2017-05-17T07:53:00.967Z,62944
2017-05-17T07:53:41.598Z,58464
2017-05-17T07:54:22.096Z,61056
2017-05-17T07:55:02.620Z,66976
2017-05-17T07:55:43.104Z,72512
2017-05-17T07:56:23.774Z,74176
2017-05-17T07:57:04.897Z,72544
2017-05-17T07:57:45.516Z,72256
2017-05-17T07:58:26.049Z,72224
2017-05-17T08:00:38.775Z,70560
2017-05-17T08:01:19.273Z,71904
2017-05-17T08:02:00.470Z,72512
2017-05-17T08:02:40.983Z,72864
2017-05-17T08:03:21.489Z,74528
2017-05-17T08:04:02.076Z,75616
2017-05-17T08:04:42.479Z,78304
2017-05-17T08:05:22.929Z,79776
2017-05-17T08:06:03.442Z,80928
2017-05-17T08:06:43.962Z,79744
2017-05-17T08:07:24.479Z,77920
2017-05-17T08:08:04.969Z,76736
2017-05-17T08:08:45.447Z,78528
2017-05-17T08:09:25.928Z,80832
2017-05-17T08:10:06.432Z,83456
2017-05-17T08:10:46.908Z,84544
2017-05-17T08:11:27.406Z,85408
2017-05-17T08:12:07.874Z,82656
2017-05-17T08:14:20.664Z,79808
2017-05-17T08:15:01.140Z,80608
2017-05-17T08:15:41.765Z,79616
2017-05-17T08:16:22.120Z,79584
2017-05-17T08:17:02.617Z,79488
2017-05-17T08:17:43.074Z,78976
2017-05-17T08:18:23.536Z,79456
2017-05-17T08:20:37.630Z,84800
2017-05-17T08:21:18.141Z,85120
2017-05-17T08:21:58.661Z,82880
2017-05-17T08:22:39.165Z,72000
2017-05-17T08:23:19.667Z,51840
2017-05-17T08:24:01.033Z,33312
2017-05-17T08:24:41.509Z,24640
2017-05-17T08:26:40.170Z,22912
2017-05-17T08:27:20.638Z,22784
2017-05-17T08:28:01.130Z,23168
2017-05-17T08:28:41.670Z,24320
2017-05-17T08:29:23.147Z,25184
2017-05-17T08:30:03.675Z,25632
2017-05-17T08:30:44.182Z,25344
2017-05-17T08:31:24.674Z,24992
2017-05-17T08:32:05.185Z,24480
2017-05-17T08:32:45.726Z,25408
2017-05-17T08:33:26.238Z,32544
2017-05-17T08:34:06.755Z,51232
2017-05-17T08:34:47.250Z,70912
2017-05-17T08:35:27.738Z,84032
2017-05-17T08:36:08.242Z,86688
2017-05-17T08:36:48.749Z,88416
2017-05-17T08:37:29.254Z,87200
2017-05-17T08:38:09.733Z,86560
2017-05-17T08:38:50.258Z,90176
2017-05-17T08:39:30.777Z,92928
2017-05-17T08:40:11.280Z,93344
2017-05-17T08:40:52.384Z,92352
2017-05-17T08:41:32.946Z,95488
2017-05-17T08:42:13.483Z,98496
2017-05-17T08:42:53.952Z,100064
2017-05-17T08:43:34.463Z,100480
2017-05-17T08:44:15.578Z,101184
2017-05-17T08:44:56.951Z,102976
2017-05-17T08:45:37.450Z,105312
2017-05-17T08:46:18.748Z,101056
2017-05-17T08:46:59.246Z,99328
2017-05-17T08:47:39.803Z,98272
2017-05-17T08:48:20.305Z,97568
2017-05-17T08:49:00.957Z,95616
2017-05-17T08:49:41.471Z,92256
2017-05-17T08:50:22.340Z,91456
2017-05-17T08:51:03.252Z,94336
2017-05-17T08:51:44.803Z,95424
2017-05-17T08:52:25.768Z,94048
2017-05-17T08:53:06.354Z,94368
2017-05-17T08:53:46.901Z,93984
2017-05-17T08:54:27.425Z,96544
2017-05-17T08:55:07.934Z,94976
2017-05-17T08:55:48.417Z,93376
2017-05-17T08:56:28.946Z,93792
2017-05-17T08:57:09.438Z,94880
2017-05-17T08:57:49.998Z,98016
2017-05-17T08:58:31.175Z,101920
2017-05-17T08:59:12.606Z,104896
2017-05-17T08:59:53.901Z,103808
2017-05-17T09:00:34.406Z,105312
2017-05-17T09:01:14.905Z,109184
2017-05-17T09:01:55.425Z,111968
2017-05-17T09:02:36.883Z,111424
2017-05-17T09:03:17.424Z,111008
2017-05-17T09:03:57.903Z,109760
2017-05-17T09:04:38.476Z,109056
2017-05-17T09:05:19.029Z,109760
2017-05-17T09:05:59.477Z,110688
2017-05-17T09:06:40.021Z,109728
2017-05-17T09:07:20.577Z,113184
2017-05-17T09:08:01.078Z,112832
2017-05-17T09:08:41.622Z,111648
2017-05-17T09:09:22.109Z,110848
2017-05-17T09:10:02.655Z,111776
2017-05-17T09:10:43.159Z,108512
2017-05-17T09:11:23.648Z,107872
2017-05-17T09:12:04.150Z,102880
2017-05-17T09:12:44.657Z,98368
2017-05-17T09:13:25.146Z,93472
2017-05-17T09:14:05.637Z,88352
2017-05-17T09:14:46.147Z,85088
2017-05-17T09:15:26.696Z,80672
2017-05-17T09:16:07.217Z,77504
2017-05-17T09:16:48.408Z,75552
2017-05-17T09:17:28.919Z,72864
2017-05-17T09:18:10.102Z,67488
2017-05-17T09:18:50.626Z,61920
2017-05-17T09:19:32.695Z,57280
2017-05-17T09:20:13.184Z,53024
2017-05-17T09:20:53.661Z,50752
2017-05-17T09:21:34.173Z,45888
2017-05-17T09:22:14.654Z,40896
2017-05-17T09:22:55.153Z,34304
2017-05-17T09:23:35.661Z,30464
2017-05-17T09:24:16.145Z,27392
2017-05-17T09:24:57.190Z,25760
2017-05-17T09:25:37.661Z,24768
2017-05-17T09:26:19.000Z,24096
2017-05-17T09:26:59.521Z,23232
2017-05-17T09:27:40.010Z,22688
2017-05-17T09:28:21.535Z,22176
2017-05-17T09:29:02.073Z,21632
2017-05-17T09:29:43.213Z,21408
2017-05-17T09:30:23.833Z,21024
2017-05-17T09:31:04.909Z,20736
2017-05-17T09:31:45.615Z,20480
2017-05-17T09:32:26.152Z,20288
2017-05-17T09:33:06.731Z,20096
2017-05-17T09:33:47.261Z,19872
2017-05-17T09:34:27.860Z,19648
2017-05-17T09:35:09.183Z,19392
2017-05-17T09:35:49.706Z,19168
2017-05-17T09:36:30.269Z,18880
2017-05-17T09:37:10.825Z,18784
2017-05-17T09:37:51.340Z,18688
2017-05-17T09:38:31.856Z,18464
2017-05-17T09:39:12.413Z,18368
2017-05-17T09:39:52.952Z,18176
2017-05-17T09:40:33.518Z,18080
2017-05-17T09:41:14.031Z,17952
2017-05-17T09:41:54.592Z,17760
2017-05-17T09:44:27.682Z,17000
2017-05-17T09:45:08.192Z,16936
2017-05-17T09:45:48.727Z,16716
2017-05-17T09:46:29.226Z,16436
2017-05-17T09:47:09.738Z,16180
2017-05-17T09:47:50.784Z,15852
2017-05-17T09:48:31.291Z,15572
2017-05-17T09:49:11.795Z,15304
2017-05-17T09:49:52.295Z,15064
2017-05-17T09:50:32.804Z,14820
2017-05-17T09:51:13.904Z,14664
2017-05-17T09:51:54.396Z,14444
2017-05-17T09:52:34.964Z,14104
2017-05-17T09:53:15.521Z,13728
2017-05-17T09:53:56.014Z,13356
2017-05-17T09:54:36.549Z,13064
2017-05-17T09:56:54.393Z,11700